sensor_id;sensor_type;location;lat;lon;timestamp;temperature;humidity
20866;DHT22;10593;48.398;10.698;2022-09-02T00:00:54;20.00;46.60
20866;DHT22;10593;48.398;10.698;2022-09-02T00:03:27;19.90;46.60
20866;DHT22;10593;48.398;10.698;2022-09-02T00:05:55;19.90;46.60
20866;DHT22;10593;48.398;10.698;2022-09-02T00:08:21;19.90;46.60
20866;DHT22;10593;48.398;10.698;2022-09-02T00:10:47;19.90;46.70
20866;DHT22;10593;48.398;10.698;2022-09-02T00:13:15;19.90;46.70
20866;DHT22;10593;48.398;10.698;2022-09-02T00:15:43;19.90;46.80
20866;DHT22;10593;48.398;10.698;2022-09-02T00:18:10;19.80;46.70
20866;DHT22;10593;48.398;10.698;2022-09-02T00:20:37;19.80;46.70
20866;DHT22;10593;48.398;10.698;2022-09-02T00:23:05;19.80;46.70
20866;DHT22;10593;48.398;10.698;2022-09-02T00:25:33;19.80;46.90
20866;DHT22;10593;48.398;10.698;2022-09-02T00:28:00;19.80;46.90
20866;DHT22;10593;48.398;10.698;2022-09-02T00:30:26;19.70;46.80
20866;DHT22;10593;48.398;10.698;2022-09-02T00:32:53;19.70;46.80
20866;DHT22;10593;48.398;10.698;2022-09-02T00:35:19;19.70;46.80
20866;DHT22;10593;48.398;10.698;2022-09-02T00:37:45;19.70;46.90
20866;DHT22;10593;48.398;10.698;2022-09-02T00:40:12;19.60;46.80
20866;DHT22;10593;48.398;10.698;2022-09-02T00:42:40;19.60;46.80
20866;DHT22;10593;48.398;10.698;2022-09-02T00:45:07;19.60;46.80
20866;DHT22;10593;48.398;10.698;2022-09-02T00:47:36;19.60;46.90
20866;DHT22;10593;48.398;10.698;2022-09-02T00:50:07;19.60;46.90
20866;DHT22;10593;48.398;10.698;2022-09-02T00:53:02;19.60;46.90
20866;DHT22;10593;48.398;10.698;2022-09-02T00:55:34;19.50;46.80
20866;DHT22;10593;48.398;10.698;2022-09-02T00:58:09;19.50;46.70
20866;DHT22;10593;48.398;10.698;2022-09-02T01:00:42;19.50;46.70
20866;DHT22;10593;48.398;10.698;2022-09-02T01:03:15;19.50;46.80
20866;DHT22;10593;48.398;10.698;2022-09-02T01:05:45;19.40;47.30
20866;DHT22;10593;48.398;10.698;2022-09-02T01:08:15;19.40;46.70
20866;DHT22;10593;48.398;10.698;2022-09-02T01:10:44;19.40;46.90
20866;DHT22;10593;48.398;10.698;2022-09-02T01:13:15;19.40;46.90
20866;DHT22;10593;48.398;10.698;2022-09-02T01:15:49;19.30;46.90
20866;DHT22;10593;48.398;10.698;2022-09-02T01:18:25;19.30;47.00
20866;DHT22;10593;48.398;10.698;2022-09-02T01:20:54;19.30;47.10
20866;DHT22;10593;48.398;10.698;2022-09-02T01:23:26;19.30;47.10
20866;DHT22;10593;48.398;10.698;2022-09-02T01:25:54;19.30;47.10
20866;DHT22;10593;48.398;10.698;2022-09-02T01:28:20;19.20;47.00
20866;DHT22;10593;48.398;10.698;2022-09-02T01:30:51;19.20;47.00
20866;DHT22;10593;48.398;10.698;2022-09-02T01:33:19;19.20;47.10
20866;DHT22;10593;48.398;10.698;2022-09-02T01:35:47;19.10;47.00
20866;DHT22;10593;48.398;10.698;2022-09-02T01:38:13;19.10;47.00
20866;DHT22;10593;48.398;10.698;2022-09-02T01:40:40;19.10;47.00
20866;DHT22;10593;48.398;10.698;2022-09-02T01:43:13;19.10;47.00
20866;DHT22;10593;48.398;10.698;2022-09-02T01:45:44;19.10;47.10
20866;DHT22;10593;48.398;10.698;2022-09-02T01:48:12;19.00;47.00
20866;DHT22;10593;48.398;10.698;2022-09-02T01:50:41;19.00;47.00
20866;DHT22;10593;48.398;10.698;2022-09-02T01:53:08;19.00;47.10
20866;DHT22;10593;48.398;10.698;2022-09-02T01:55:34;19.00;47.10
20866;DHT22;10593;48.398;10.698;2022-09-02T01:58:00;18.90;47.00
20866;DHT22;10593;48.398;10.698;2022-09-02T02:00:27;19.00;47.20
20866;DHT22;10593;48.398;10.698;2022-09-02T02:02:53;18.90;47.10
20866;DHT22;10593;48.398;10.698;2022-09-02T02:05:19;18.90;47.20
20866;DHT22;10593;48.398;10.698;2022-09-02T02:07:46;18.90;47.20
20866;DHT22;10593;48.398;10.698;2022-09-02T02:10:14;18.80;47.10
20866;DHT22;10593;48.398;10.698;2022-09-02T02:12:42;18.80;47.20
20866;DHT22;10593;48.398;10.698;2022-09-02T02:15:12;18.80;47.30
20866;DHT22;10593;48.398;10.698;2022-09-02T02:17:39;18.80;47.40
20866;DHT22;10593;48.398;10.698;2022-09-02T02:20:08;18.80;47.40
20866;DHT22;10593;48.398;10.698;2022-09-02T02:22:35;18.80;47.40
20866;DHT22;10593;48.398;10.698;2022-09-02T02:25:04;18.70;47.30
20866;DHT22;10593;48.398;10.698;2022-09-02T02:27:30;18.70;47.40
20866;DHT22;10593;48.398;10.698;2022-09-02T02:29:56;18.70;47.40
20866;DHT22;10593;48.398;10.698;2022-09-02T02:32:22;18.70;47.60
20866;DHT22;10593;48.398;10.698;2022-09-02T02:34:48;18.70;47.70
20866;DHT22;10593;48.398;10.698;2022-09-02T02:37:14;18.60;47.60
20866;DHT22;10593;48.398;10.698;2022-09-02T02:39:41;18.60;47.70
20866;DHT22;10593;48.398;10.698;2022-09-02T02:42:09;18.60;47.80
20866;DHT22;10593;48.398;10.698;2022-09-02T02:44:37;18.60;47.80
20866;DHT22;10593;48.398;10.698;2022-09-02T02:47:04;18.60;47.80
20866;DHT22;10593;48.398;10.698;2022-09-02T02:49:36;18.60;48.10
20866;DHT22;10593;48.398;10.698;2022-09-02T02:52:04;18.60;48.00
20866;DHT22;10593;48.398;10.698;2022-09-02T02:54:30;18.50;47.90
20866;DHT22;10593;48.398;10.698;2022-09-02T02:56:55;18.50;48.00
20866;DHT22;10593;48.398;10.698;2022-09-02T02:59:21;18.50;48.00
20866;DHT22;10593;48.398;10.698;2022-09-02T03:01:47;18.50;48.10
20866;DHT22;10593;48.398;10.698;2022-09-02T03:04:12;18.50;48.10
20866;DHT22;10593;48.398;10.698;2022-09-02T03:06:38;18.50;48.10
20866;DHT22;10593;48.398;10.698;2022-09-02T03:09:04;18.50;48.10
20866;DHT22;10593;48.398;10.698;2022-09-02T03:11:30;18.40;48.10
20866;DHT22;10593;48.398;10.698;2022-09-02T03:13:56;18.40;48.10
20866;DHT22;10593;48.398;10.698;2022-09-02T03:16:23;18.40;48.10
20866;DHT22;10593;48.398;10.698;2022-09-02T03:18:50;18.40;48.10
20866;DHT22;10593;48.398;10.698;2022-09-02T03:21:16;18.40;48.10
20866;DHT22;10593;48.398;10.698;2022-09-02T03:23:43;18.30;48.00
20866;DHT22;10593;48.398;10.698;2022-09-02T03:26:16;18.30;48.00
20866;DHT22;10593;48.398;10.698;2022-09-02T03:28:44;18.30;48.00
20866;DHT22;10593;48.398;10.698;2022-09-02T03:31:18;18.30;48.00
20866;DHT22;10593;48.398;10.698;2022-09-02T03:33:46;18.30;48.10
20866;DHT22;10593;48.398;10.698;2022-09-02T03:36:35;18.20;48.10
20866;DHT22;10593;48.398;10.698;2022-09-02T03:39:04;18.30;48.40
20866;DHT22;10593;48.398;10.698;2022-09-02T03:41:35;18.20;48.40
20866;DHT22;10593;48.398;10.698;2022-09-02T03:44:01;18.20;48.40
20866;DHT22;10593;48.398;10.698;2022-09-02T03:46:27;18.20;48.50
20866;DHT22;10593;48.398;10.698;2022-09-02T03:48:53;18.20;48.60
20866;DHT22;10593;48.398;10.698;2022-09-02T03:51:20;18.20;48.70
20866;DHT22;10593;48.398;10.698;2022-09-02T03:53:47;18.20;48.70
20866;DHT22;10593;48.398;10.698;2022-09-02T03:56:14;18.20;48.70
20866;DHT22;10593;48.398;10.698;2022-09-02T03:58:42;18.20;48.70
20866;DHT22;10593;48.398;10.698;2022-09-02T04:01:14;18.10;48.70
20866;DHT22;10593;48.398;10.698;2022-09-02T04:03:42;18.10;48.70
20866;DHT22;10593;48.398;10.698;2022-09-02T04:06:10;18.10;48.70
20866;DHT22;10593;48.398;10.698;2022-09-02T04:08:38;18.00;48.70
20866;DHT22;10593;48.398;10.698;2022-09-02T04:11:09;18.10;48.80
20866;DHT22;10593;48.398;10.698;2022-09-02T04:13:37;18.00;48.70
20866;DHT22;10593;48.398;10.698;2022-09-02T04:16:12;18.00;48.70
20866;DHT22;10593;48.398;10.698;2022-09-02T04:18:40;18.00;48.80
20866;DHT22;10593;48.398;10.698;2022-09-02T04:21:06;18.00;48.80
20866;DHT22;10593;48.398;10.698;2022-09-02T04:23:32;18.00;48.70
20866;DHT22;10593;48.398;10.698;2022-09-02T04:26:03;18.00;48.70
20866;DHT22;10593;48.398;10.698;2022-09-02T04:28:30;18.00;48.80
20866;DHT22;10593;48.398;10.698;2022-09-02T04:30:56;17.90;48.70
20866;DHT22;10593;48.398;10.698;2022-09-02T04:33:21;17.90;48.70
20866;DHT22;10593;48.398;10.698;2022-09-02T04:35:47;17.90;48.80
20866;DHT22;10593;48.398;10.698;2022-09-02T04:38:14;17.90;48.70
20866;DHT22;10593;48.398;10.698;2022-09-02T04:40:42;17.90;48.70
20866;DHT22;10593;48.398;10.698;2022-09-02T04:43:10;17.80;48.70
20866;DHT22;10593;48.398;10.698;2022-09-02T04:45:44;17.80;48.70
20866;DHT22;10593;48.398;10.698;2022-09-02T04:48:11;17.80;48.80
20866;DHT22;10593;48.398;10.698;2022-09-02T04:50:39;17.80;48.80
20866;DHT22;10593;48.398;10.698;2022-09-02T04:53:05;17.80;48.90
20866;DHT22;10593;48.398;10.698;2022-09-02T04:55:31;17.80;48.90
20866;DHT22;10593;48.398;10.698;2022-09-02T04:57:58;17.80;49.00
20866;DHT22;10593;48.398;10.698;2022-09-02T05:00:24;17.70;49.00
20866;DHT22;10593;48.398;10.698;2022-09-02T05:02:55;17.80;49.10
20866;DHT22;10593;48.398;10.698;2022-09-02T05:05:21;17.70;49.20
20866;DHT22;10593;48.398;10.698;2022-09-02T05:07:46;17.70;49.20
20866;DHT22;10593;48.398;10.698;2022-09-02T05:10:12;17.70;49.20
20866;DHT22;10593;48.398;10.698;2022-09-02T05:12:39;17.70;49.20
20866;DHT22;10593;48.398;10.698;2022-09-02T05:15:07;17.70;49.30
20866;DHT22;10593;48.398;10.698;2022-09-02T05:17:34;17.70;49.50
20866;DHT22;10593;48.398;10.698;2022-09-02T05:20:02;17.70;49.50
20866;DHT22;10593;48.398;10.698;2022-09-02T05:22:30;17.70;49.60
20866;DHT22;10593;48.398;10.698;2022-09-02T05:24:56;17.80;49.80
20866;DHT22;10593;48.398;10.698;2022-09-02T05:27:22;17.80;49.80
20866;DHT22;10593;48.398;10.698;2022-09-02T05:29:48;17.80;49.80
20866;DHT22;10593;48.398;10.698;2022-09-02T05:32:14;17.80;49.90
20866;DHT22;10593;48.398;10.698;2022-09-02T05:34:40;17.90;50.10
20866;DHT22;10593;48.398;10.698;2022-09-02T05:37:07;17.90;50.10
20866;DHT22;10593;48.398;10.698;2022-09-02T05:39:35;17.90;50.20
20866;DHT22;10593;48.398;10.698;2022-09-02T05:42:01;18.00;50.30
20866;DHT22;10593;48.398;10.698;2022-09-02T05:44:26;18.10;50.40
20866;DHT22;10593;48.398;10.698;2022-09-02T05:46:54;18.10;50.40
20866;DHT22;10593;48.398;10.698;2022-09-02T05:49:20;18.20;50.60
20866;DHT22;10593;48.398;10.698;2022-09-02T05:51:52;18.20;51.20
20866;DHT22;10593;48.398;10.698;2022-09-02T05:54:26;18.30;50.70
20866;DHT22;10593;48.398;10.698;2022-09-02T05:57:02;18.30;50.70
20866;DHT22;10593;48.398;10.698;2022-09-02T05:59:33;18.40;50.80
20866;DHT22;10593;48.398;10.698;2022-09-02T06:02:05;18.40;50.80
20866;DHT22;10593;48.398;10.698;2022-09-02T06:04:36;18.50;51.00
20866;DHT22;10593;48.398;10.698;2022-09-02T06:07:06;18.60;51.10
20866;DHT22;10593;48.398;10.698;2022-09-02T06:09:31;18.60;51.10
20866;DHT22;10593;48.398;10.698;2022-09-02T06:11:58;18.70;51.20
20866;DHT22;10593;48.398;10.698;2022-09-02T06:14:24;18.80;51.30
20866;DHT22;10593;48.398;10.698;2022-09-02T06:16:53;18.90;51.30
20866;DHT22;10593;48.398;10.698;2022-09-02T06:19:20;19.00;51.20
20866;DHT22;10593;48.398;10.698;2022-09-02T06:21:48;19.20;51.20
20866;DHT22;10593;48.398;10.698;2022-09-02T06:24:13;19.30;51.10
20866;DHT22;10593;48.398;10.698;2022-09-02T06:26:40;19.50;51.10
20866;DHT22;10593;48.398;10.698;2022-09-02T06:29:07;19.70;51.10
20866;DHT22;10593;48.398;10.698;2022-09-02T06:31:34;19.80;51.00
20866;DHT22;10593;48.398;10.698;2022-09-02T06:34:00;20.10;51.10
20866;DHT22;10593;48.398;10.698;2022-09-02T06:36:29;20.30;50.70
20866;DHT22;10593;48.398;10.698;2022-09-02T06:38:58;20.50;50.30
20866;DHT22;10593;48.398;10.698;2022-09-02T06:41:27;20.70;50.00
20866;DHT22;10593;48.398;10.698;2022-09-02T06:43:57;20.90;49.90
20866;DHT22;10593;48.398;10.698;2022-09-02T06:46:31;21.10;49.40
20866;DHT22;10593;48.398;10.698;2022-09-02T06:48:59;21.30;49.10
20866;DHT22;10593;48.398;10.698;2022-09-02T06:53:55;21.50;48.40
20866;DHT22;10593;48.398;10.698;2022-09-02T06:56:21;21.50;48.30
20866;DHT22;10593;48.398;10.698;2022-09-02T06:58:47;21.50;48.10
20866;DHT22;10593;48.398;10.698;2022-09-02T07:01:21;21.50;47.90
20866;DHT22;10593;48.398;10.698;2022-09-02T07:03:52;21.50;47.90
20866;DHT22;10593;48.398;10.698;2022-09-02T07:06:44;21.50;47.90
20866;DHT22;10593;48.398;10.698;2022-09-02T07:09:14;21.40;47.60
20866;DHT22;10593;48.398;10.698;2022-09-02T07:11:43;21.40;47.50
20866;DHT22;10593;48.398;10.698;2022-09-02T07:14:15;21.30;47.30
20866;DHT22;10593;48.398;10.698;2022-09-02T07:16:50;21.20;47.40
20866;DHT22;10593;48.398;10.698;2022-09-02T07:19:18;21.20;47.40
20866;DHT22;10593;48.398;10.698;2022-09-02T07:21:45;21.00;47.50
20866;DHT22;10593;48.398;10.698;2022-09-02T07:24:13;21.00;47.40
20866;DHT22;10593;48.398;10.698;2022-09-02T07:26:40;20.90;47.50
20866;DHT22;10593;48.398;10.698;2022-09-02T07:29:07;20.80;47.70
20866;DHT22;10593;48.398;10.698;2022-09-02T07:31:35;20.70;48.00
20866;DHT22;10593;48.398;10.698;2022-09-02T07:34:03;20.60;48.20
20866;DHT22;10593;48.398;10.698;2022-09-02T07:36:31;20.60;48.20
20866;DHT22;10593;48.398;10.698;2022-09-02T07:38:59;20.60;48.40
20866;DHT22;10593;48.398;10.698;2022-09-02T07:41:25;20.50;48.60
20866;DHT22;10593;48.398;10.698;2022-09-02T07:43:52;20.50;48.80
20866;DHT22;10593;48.398;10.698;2022-09-02T07:46:18;20.50;49.00
20866;DHT22;10593;48.398;10.698;2022-09-02T07:48:44;20.50;49.00
20866;DHT22;10593;48.398;10.698;2022-09-02T07:51:10;20.50;49.20
20866;DHT22;10593;48.398;10.698;2022-09-02T07:53:36;20.50;49.30
20866;DHT22;10593;48.398;10.698;2022-09-02T07:56:02;20.50;49.30
20866;DHT22;10593;48.398;10.698;2022-09-02T07:58:28;20.50;49.40
20866;DHT22;10593;48.398;10.698;2022-09-02T08:00:54;20.60;49.40
20866;DHT22;10593;48.398;10.698;2022-09-02T08:03:22;20.60;49.20
20866;DHT22;10593;48.398;10.698;2022-09-02T08:05:49;20.60;49.20
20866;DHT22;10593;48.398;10.698;2022-09-02T08:08:17;20.60;48.90
20866;DHT22;10593;48.398;10.698;2022-09-02T08:10:48;20.60;49.00
20866;DHT22;10593;48.398;10.698;2022-09-02T08:13:15;20.70;49.00
20866;DHT22;10593;48.398;10.698;2022-09-02T08:15:42;20.70;49.00
20866;DHT22;10593;48.398;10.698;2022-09-02T08:18:09;20.70;48.80
20866;DHT22;10593;48.398;10.698;2022-09-02T08:20:35;20.70;48.60
20866;DHT22;10593;48.398;10.698;2022-09-02T08:23:03;20.70;48.40
20866;DHT22;10593;48.398;10.698;2022-09-02T08:25:31;20.70;48.50
20866;DHT22;10593;48.398;10.698;2022-09-02T08:27:57;20.80;48.60
20866;DHT22;10593;48.398;10.698;2022-09-02T08:30:23;20.80;48.50
20866;DHT22;10593;48.398;10.698;2022-09-02T08:32:49;20.80;48.30
20866;DHT22;10593;48.398;10.698;2022-09-02T08:35:15;20.80;47.90
20866;DHT22;10593;48.398;10.698;2022-09-02T08:37:41;20.80;47.40
20866;DHT22;10593;48.398;10.698;2022-09-02T08:40:14;20.80;47.10
20866;DHT22;10593;48.398;10.698;2022-09-02T08:42:45;20.80;46.60
20866;DHT22;10593;48.398;10.698;2022-09-02T08:48:12;20.70;46.70
20866;DHT22;10593;48.398;10.698;2022-09-02T08:50:44;20.70;46.50
20866;DHT22;10593;48.398;10.698;2022-09-02T08:56:03;20.70;46.60
20866;DHT22;10593;48.398;10.698;2022-09-02T08:58:39;20.70;46.40
20866;DHT22;10593;48.398;10.698;2022-09-02T09:01:21;20.70;46.00
20866;DHT22;10593;48.398;10.698;2022-09-02T09:04:16;20.70;45.90
20866;DHT22;10593;48.398;10.698;2022-09-02T09:10:30;20.70;45.80
20866;DHT22;10593;48.398;10.698;2022-09-02T09:18:42;20.80;45.60
20866;DHT22;10593;48.398;10.698;2022-09-02T09:21:12;20.90;45.70
20866;DHT22;10593;48.398;10.698;2022-09-02T09:23:39;20.90;45.40
20866;DHT22;10593;48.398;10.698;2022-09-02T09:26:16;20.90;44.80
20866;DHT22;10593;48.398;10.698;2022-09-02T09:28:47;20.90;44.90
20866;DHT22;10593;48.398;10.698;2022-09-02T09:31:18;21.00;45.10
20866;DHT22;10593;48.398;10.698;2022-09-02T09:34:02;21.00;44.80
20866;DHT22;10593;48.398;10.698;2022-09-02T09:36:53;21.00;44.30
20866;DHT22;10593;48.398;10.698;2022-09-02T09:39:24;21.00;43.40
20866;DHT22;10593;48.398;10.698;2022-09-02T09:42:00;21.10;43.50
20866;DHT22;10593;48.398;10.698;2022-09-02T09:44:32;21.10;43.30
20866;DHT22;10593;48.398;10.698;2022-09-02T09:47:27;21.10;43.80
20866;DHT22;10593;48.398;10.698;2022-09-02T09:50:09;21.10;43.80
20866;DHT22;10593;48.398;10.698;2022-09-02T09:52:40;21.10;44.20
20866;DHT22;10593;48.398;10.698;2022-09-02T09:55:16;21.10;44.20
20866;DHT22;10593;48.398;10.698;2022-09-02T09:57:45;21.20;44.30
20866;DHT22;10593;48.398;10.698;2022-09-02T10:00:33;21.20;43.70
20866;DHT22;10593;48.398;10.698;2022-09-02T10:03:02;21.20;42.70
20866;DHT22;10593;48.398;10.698;2022-09-02T10:05:33;21.20;42.70
20866;DHT22;10593;48.398;10.698;2022-09-02T10:13:31;21.30;42.60
20866;DHT22;10593;48.398;10.698;2022-09-02T10:24:41;21.30;42.60
20866;DHT22;10593;48.398;10.698;2022-09-02T10:27:57;21.40;42.30
20866;DHT22;10593;48.398;10.698;2022-09-02T10:30:32;21.40;42.30
20866;DHT22;10593;48.398;10.698;2022-09-02T10:33:39;21.40;42.40
20866;DHT22;10593;48.398;10.698;2022-09-02T10:36:27;21.40;41.90
20866;DHT22;10593;48.398;10.698;2022-09-02T10:39:05;21.40;42.10
20866;DHT22;10593;48.398;10.698;2022-09-02T10:41:42;21.50;41.80
20866;DHT22;10593;48.398;10.698;2022-09-02T10:44:37;21.40;41.10
20866;DHT22;10593;48.398;10.698;2022-09-02T10:47:33;21.50;41.60
20866;DHT22;10593;48.398;10.698;2022-09-02T10:53:34;21.50;42.00
20866;DHT22;10593;48.398;10.698;2022-09-02T10:56:13;21.50;41.80
20866;DHT22;10593;48.398;10.698;2022-09-02T10:58:56;21.50;42.20
20866;DHT22;10593;48.398;10.698;2022-09-02T11:01:50;21.60;42.00
20866;DHT22;10593;48.398;10.698;2022-09-02T11:04:36;21.60;41.90
20866;DHT22;10593;48.398;10.698;2022-09-02T11:07:08;21.70;42.00
20866;DHT22;10593;48.398;10.698;2022-09-02T11:12:47;21.70;41.10
20866;DHT22;10593;48.398;10.698;2022-09-02T11:15:45;21.70;40.70
20866;DHT22;10593;48.398;10.698;2022-09-02T11:18:27;21.70;40.20
20866;DHT22;10593;48.398;10.698;2022-09-02T11:24:19;21.80;39.90
20866;DHT22;10593;48.398;10.698;2022-09-02T11:27:00;21.80;39.60
20866;DHT22;10593;48.398;10.698;2022-09-02T11:29:38;21.80;39.30
20866;DHT22;10593;48.398;10.698;2022-09-02T11:32:18;21.80;40.00
20866;DHT22;10593;48.398;10.698;2022-09-02T11:34:54;21.80;40.30
20866;DHT22;10593;48.398;10.698;2022-09-02T11:37:42;21.80;40.30
20866;DHT22;10593;48.398;10.698;2022-09-02T11:40:20;21.80;40.00
20866;DHT22;10593;48.398;10.698;2022-09-02T11:43:06;21.90;40.70
20866;DHT22;10593;48.398;10.698;2022-09-02T11:45:51;21.80;40.20
20866;DHT22;10593;48.398;10.698;2022-09-02T11:54:14;21.90;40.70
20866;DHT22;10593;48.398;10.698;2022-09-02T11:56:46;21.90;40.00
20866;DHT22;10593;48.398;10.698;2022-09-02T12:00:00;22.00;39.90
20866;DHT22;10593;48.398;10.698;2022-09-02T12:02:33;22.00;40.10
20866;DHT22;10593;48.398;10.698;2022-09-02T12:08:00;22.00;39.10
20866;DHT22;10593;48.398;10.698;2022-09-02T12:19:15;22.10;39.80
20866;DHT22;10593;48.398;10.698;2022-09-02T12:21:35;22.20;39.70
20866;DHT22;10593;48.398;10.698;2022-09-02T12:24:50;22.20;40.10
20866;DHT22;10593;48.398;10.698;2022-09-02T12:27:24;22.20;39.70
20866;DHT22;10593;48.398;10.698;2022-09-02T12:29:52;22.20;40.40
20866;DHT22;10593;48.398;10.698;2022-09-02T12:33:00;22.20;40.20
20866;DHT22;10593;48.398;10.698;2022-09-02T12:35:48;22.30;39.90
20866;DHT22;10593;48.398;10.698;2022-09-02T12:38:22;22.30;40.00
20866;DHT22;10593;48.398;10.698;2022-09-02T12:43:54;22.40;40.50
20866;DHT22;10593;48.398;10.698;2022-09-02T12:49:27;22.40;40.20
20866;DHT22;10593;48.398;10.698;2022-09-02T12:52:10;22.40;40.20
20866;DHT22;10593;48.398;10.698;2022-09-02T12:54:56;22.50;40.20
20866;DHT22;10593;48.398;10.698;2022-09-02T12:57:43;22.50;39.90
20866;DHT22;10593;48.398;10.698;2022-09-02T13:00:23;22.50;39.70
20866;DHT22;10593;48.398;10.698;2022-09-02T13:06:05;22.60;38.80
20866;DHT22;10593;48.398;10.698;2022-09-02T13:09:00;22.60;39.70
20866;DHT22;10593;48.398;10.698;2022-09-02T13:12:10;22.60;39.50
20866;DHT22;10593;48.398;10.698;2022-09-02T13:15:39;22.60;39.70
20866;DHT22;10593;48.398;10.698;2022-09-02T13:26:52;22.70;40.00
20866;DHT22;10593;48.398;10.698;2022-09-02T13:29:50;22.80;39.30
20866;DHT22;10593;48.398;10.698;2022-09-02T13:32:31;22.80;39.30
20866;DHT22;10593;48.398;10.698;2022-09-02T13:35:01;22.80;39.10
20866;DHT22;10593;48.398;10.698;2022-09-02T13:37:35;22.80;39.30
20866;DHT22;10593;48.398;10.698;2022-09-02T13:40:25;22.80;39.30
20866;DHT22;10593;48.398;10.698;2022-09-02T13:43:08;22.80;39.10
20866;DHT22;10593;48.398;10.698;2022-09-02T13:45:43;22.80;39.20
20866;DHT22;10593;48.398;10.698;2022-09-02T13:48:30;22.90;39.40
20866;DHT22;10593;48.398;10.698;2022-09-02T13:51:02;22.90;38.90
20866;DHT22;10593;48.398;10.698;2022-09-02T13:53:38;22.90;39.40
20866;DHT22;10593;48.398;10.698;2022-09-02T13:56:08;23.00;39.20
20866;DHT22;10593;48.398;10.698;2022-09-02T13:58:52;23.00;38.90
20866;DHT22;10593;48.398;10.698;2022-09-02T14:01:31;23.00;38.40
20866;DHT22;10593;48.398;10.698;2022-09-02T14:03:58;23.00;38.20
20866;DHT22;10593;48.398;10.698;2022-09-02T14:06:36;23.00;38.80
20866;DHT22;10593;48.398;10.698;2022-09-02T14:09:07;23.00;38.50
20866;DHT22;10593;48.398;10.698;2022-09-02T14:11:43;23.00;38.80
20866;DHT22;10593;48.398;10.698;2022-09-02T14:14:15;23.00;38.80
20866;DHT22;10593;48.398;10.698;2022-09-02T14:16:44;23.10;38.10
20866;DHT22;10593;48.398;10.698;2022-09-02T14:19:10;23.10;38.40
20866;DHT22;10593;48.398;10.698;2022-09-02T14:21:53;23.10;38.60
20866;DHT22;10593;48.398;10.698;2022-09-02T14:24:28;23.10;38.40
20866;DHT22;10593;48.398;10.698;2022-09-02T14:26:56;23.10;37.70
20866;DHT22;10593;48.398;10.698;2022-09-02T14:29:25;23.10;38.10
20866;DHT22;10593;48.398;10.698;2022-09-02T14:32:26;23.10;37.70
20866;DHT22;10593;48.398;10.698;2022-09-02T14:37:50;23.20;37.40
20866;DHT22;10593;48.398;10.698;2022-09-02T14:40:29;23.20;38.20
20866;DHT22;10593;48.398;10.698;2022-09-02T14:42:56;23.20;38.30
20866;DHT22;10593;48.398;10.698;2022-09-02T14:45:28;23.20;38.70
20866;DHT22;10593;48.398;10.698;2022-09-02T14:48:00;23.20;38.60
20866;DHT22;10593;48.398;10.698;2022-09-02T14:50:34;23.20;38.90
20866;DHT22;10593;48.398;10.698;2022-09-02T14:53:05;23.20;39.00
20866;DHT22;10593;48.398;10.698;2022-09-02T14:58:10;23.30;37.70
20866;DHT22;10593;48.398;10.698;2022-09-02T15:00:36;23.30;38.00
20866;DHT22;10593;48.398;10.698;2022-09-02T15:03:04;23.30;38.30
20866;DHT22;10593;48.398;10.698;2022-09-02T15:05:31;23.30;38.40
20866;DHT22;10593;48.398;10.698;2022-09-02T15:07:57;23.30;38.20
20866;DHT22;10593;48.398;10.698;2022-09-02T15:10:23;23.30;37.90
20866;DHT22;10593;48.398;10.698;2022-09-02T15:12:52;23.30;38.20
20866;DHT22;10593;48.398;10.698;2022-09-02T15:15:21;23.30;38.20
20866;DHT22;10593;48.398;10.698;2022-09-02T15:17:47;23.30;37.90
20866;DHT22;10593;48.398;10.698;2022-09-02T15:20:13;23.30;37.90
20866;DHT22;10593;48.398;10.698;2022-09-02T15:22:39;23.30;37.70
20866;DHT22;10593;48.398;10.698;2022-09-02T15:25:05;23.30;37.90
20866;DHT22;10593;48.398;10.698;2022-09-02T15:27:35;23.30;37.90
20866;DHT22;10593;48.398;10.698;2022-09-02T15:30:02;23.30;37.90
20866;DHT22;10593;48.398;10.698;2022-09-02T15:32:28;23.30;38.50
20866;DHT22;10593;48.398;10.698;2022-09-02T15:34:54;23.30;38.30
20866;DHT22;10593;48.398;10.698;2022-09-02T15:37:19;23.40;38.50
20866;DHT22;10593;48.398;10.698;2022-09-02T15:39:45;23.40;38.30
20866;DHT22;10593;48.398;10.698;2022-09-02T15:42:11;23.40;38.30
20866;DHT22;10593;48.398;10.698;2022-09-02T15:44:36;23.40;37.90
20866;DHT22;10593;48.398;10.698;2022-09-02T15:47:02;23.40;37.90
20866;DHT22;10593;48.398;10.698;2022-09-02T15:49:28;23.40;38.30
20866;DHT22;10593;48.398;10.698;2022-09-02T15:51:54;23.40;38.50
20866;DHT22;10593;48.398;10.698;2022-09-02T15:54:22;23.40;38.20
20866;DHT22;10593;48.398;10.698;2022-09-02T15:56:53;23.40;38.00
20866;DHT22;10593;48.398;10.698;2022-09-02T15:59:21;23.40;37.90
20866;DHT22;10593;48.398;10.698;2022-09-02T16:01:49;23.40;37.90
20866;DHT22;10593;48.398;10.698;2022-09-02T16:04:16;23.40;37.90
20866;DHT22;10593;48.398;10.698;2022-09-02T16:06:44;23.40;37.70
20866;DHT22;10593;48.398;10.698;2022-09-02T16:09:13;23.40;37.90
20866;DHT22;10593;48.398;10.698;2022-09-02T16:11:42;23.40;37.90
20866;DHT22;10593;48.398;10.698;2022-09-02T16:14:10;23.40;37.90
20866;DHT22;10593;48.398;10.698;2022-09-02T16:16:36;23.40;38.00
20866;DHT22;10593;48.398;10.698;2022-09-02T16:19:04;23.40;37.90
20866;DHT22;10593;48.398;10.698;2022-09-02T16:21:31;23.40;37.90
20866;DHT22;10593;48.398;10.698;2022-09-02T16:23:57;23.40;37.90
20866;DHT22;10593;48.398;10.698;2022-09-02T16:26:25;23.40;37.60
20866;DHT22;10593;48.398;10.698;2022-09-02T16:28:55;23.40;37.70
20866;DHT22;10593;48.398;10.698;2022-09-02T16:31:24;23.40;37.90
20866;DHT22;10593;48.398;10.698;2022-09-02T16:33:59;23.40;37.90
20866;DHT22;10593;48.398;10.698;2022-09-02T16:36:30;23.40;37.90
20866;DHT22;10593;48.398;10.698;2022-09-02T16:38:58;23.40;37.90
20866;DHT22;10593;48.398;10.698;2022-09-02T16:41:37;23.40;37.90
20866;DHT22;10593;48.398;10.698;2022-09-02T16:44:11;23.40;37.90
20866;DHT22;10593;48.398;10.698;2022-09-02T16:46:38;23.40;37.90
20866;DHT22;10593;48.398;10.698;2022-09-02T16:49:05;23.40;37.90
20866;DHT22;10593;48.398;10.698;2022-09-02T16:51:31;23.40;37.90
20866;DHT22;10593;48.398;10.698;2022-09-02T16:54:00;23.40;37.90
20866;DHT22;10593;48.398;10.698;2022-09-02T16:56:27;23.40;38.00
20866;DHT22;10593;48.398;10.698;2022-09-02T16:58:55;23.40;38.10
20866;DHT22;10593;48.398;10.698;2022-09-02T17:01:24;23.40;38.30
20866;DHT22;10593;48.398;10.698;2022-09-02T17:03:50;23.40;38.30